createdAt,value
2023-02-09T00:02:35.143Z,100128.31
2023-02-09T00:05:41.589Z,100124.03
2023-02-09T00:08:44.386Z,100128.63
2023-02-09T00:12:04.875Z,100120.53
2023-02-09T00:15:09.553Z,100117.41
2023-02-09T00:18:12.288Z,100122.44
2023-02-09T00:21:14.983Z,100127.34
2023-02-09T00:24:18.169Z,100122.31
2023-02-09T00:27:20.875Z,100120.13
2023-02-09T00:30:25.164Z,100113.13
2023-02-09T00:33:27.990Z,100111.56
2023-02-09T00:36:30.797Z,100110.53
2023-02-09T00:39:33.438Z,100107.81
2023-02-09T00:42:36.255Z,100114.72
2023-02-09T00:45:40.286Z,100110.38
2023-02-09T00:48:42.899Z,100111.38
2023-02-09T00:51:45.518Z,100107.88
2023-02-09T00:54:48.315Z,100108.97
2023-02-09T00:57:50.970Z,100106.69
2023-02-09T01:00:55.016Z,100113.66
2023-02-09T01:03:58.024Z,100103.88
2023-02-09T01:07:00.868Z,100103.34
2023-02-09T01:10:04.027Z,100107.38
2023-02-09T01:13:06.921Z,100102.13
2023-02-09T01:16:12.165Z,100098.78
2023-02-09T01:19:15.131Z,100097.38
2023-02-09T01:22:18.042Z,100096.63
2023-02-09T01:25:21.162Z,100092.88
2023-02-09T01:28:23.783Z,100090.38
2023-02-09T01:31:29.892Z,100087.38
2023-02-09T01:34:32.663Z,100084.63
2023-02-09T01:37:36.554Z,100084.63
2023-02-09T01:40:39.129Z,100086.94
2023-02-09T01:43:53.792Z,100078.75
2023-02-09T01:46:57.985Z,100081.38
2023-02-09T01:50:00.653Z,100076.81
2023-02-09T01:53:03.946Z,100072.22
2023-02-09T01:56:09.396Z,100078.81
2023-02-09T01:59:12.359Z,100073.13
2023-02-09T02:02:16.300Z,100070.81
2023-02-09T02:05:19.737Z,100065.47
2023-02-09T02:08:26.269Z,100062.75
2023-02-09T02:11:29.834Z,100056.41
2023-02-09T02:14:35.334Z,100056.78
2023-02-09T02:17:49.629Z,100049.44
2023-02-09T02:21:17.346Z,100044.19
2023-02-09T02:24:52.150Z,100057.31
2023-02-09T02:28:04.303Z,100065.72
2023-02-09T02:31:59.139Z,100069.44
2023-02-09T02:35:04.588Z,100066.78
2023-02-09T02:38:16.315Z,100061.16
2023-02-09T02:41:22.771Z,100059.66
2023-02-09T02:44:28.980Z,100054.31
2023-02-09T02:47:36.005Z,100053.91
2023-02-09T02:50:41.197Z,100053.97
2023-02-09T02:53:48.803Z,100057.31
2023-02-09T02:56:54.497Z,100057.94
2023-02-09T03:00:01.298Z,100066.75
2023-02-09T03:03:09.072Z,100056.44
2023-02-09T03:06:12.307Z,100061.16
2023-02-09T03:09:14.935Z,100060.13
2023-02-09T03:12:27.146Z,100048.56
2023-02-09T03:15:33.245Z,100058.78
2023-02-09T03:18:45.830Z,100062.06
2023-02-09T03:21:51.926Z,100069.88
2023-02-09T03:24:56.644Z,100071.38
2023-02-09T03:28:04.894Z,100079.09
2023-02-09T03:31:08.232Z,100072.00
2023-02-09T03:34:12.462Z,100078.50
2023-02-09T03:37:15.423Z,100073.53
2023-02-09T03:40:19.359Z,100065.72
2023-02-09T03:43:42.331Z,100058.59
2023-02-09T03:46:45.152Z,100065.50
2023-02-09T03:49:49.190Z,100059.34
2023-02-09T03:52:51.820Z,100064.75
2023-02-09T03:55:54.559Z,100071.75
2023-02-09T03:58:57.267Z,100068.97
2023-02-09T04:01:59.921Z,100063.47
2023-02-09T04:05:05.795Z,100064.09
2023-02-09T04:08:08.883Z,100063.75
2023-02-09T04:11:11.530Z,100063.38
2023-02-09T04:14:14.836Z,100069.44
2023-02-09T04:17:17.459Z,100075.59
2023-02-09T04:20:21.498Z,100076.06
2023-02-09T04:23:24.127Z,100071.38
2023-02-09T04:26:26.775Z,100075.31
2023-02-09T04:29:29.555Z,100066.97
2023-02-09T04:32:32.231Z,100084.41
2023-02-09T04:35:36.200Z,100081.28
2023-02-09T04:38:38.858Z,100086.94
2023-02-09T04:41:41.836Z,100084.31
2023-02-09T04:44:44.616Z,100088.00
2023-02-09T04:47:47.258Z,100093.22
2023-02-09T04:50:51.944Z,100085.06
2023-02-09T04:53:54.612Z,100082.28
2023-02-09T04:57:11.337Z,100082.09
2023-02-09T05:00:15.128Z,100082.28
2023-02-09T05:03:17.856Z,100087.72
2023-02-09T05:06:22.258Z,100081.75
2023-02-09T05:09:25.166Z,100084.41
2023-02-09T05:12:27.871Z,100076.31
2023-02-09T05:15:30.848Z,100081.00
2023-02-09T05:18:33.490Z,100069.16
2023-02-09T05:21:37.571Z,100068.06
2023-02-09T05:24:40.255Z,100059.53
2023-02-09T05:27:42.958Z,100058.59
2023-02-09T05:30:46.131Z,100056.22
2023-02-09T05:33:48.851Z,100062.75
2023-02-09T05:36:53.201Z,100051.78
2023-02-09T05:39:55.798Z,100056.13
2023-02-09T05:42:59.766Z,100060.16
2023-02-09T05:46:02.651Z,100056.47
2023-02-09T05:49:05.353Z,100052.09
2023-02-09T05:52:09.731Z,100050.88
2023-02-09T05:55:12.338Z,100059.69
2023-02-09T05:58:15.050Z,100064.66
2023-02-09T06:01:17.814Z,100048.13
2023-02-09T06:04:20.572Z,100053.72
2023-02-09T06:07:24.578Z,100052.34
2023-02-09T06:10:27.378Z,100060.63
2023-02-09T06:13:30.365Z,100069.63
2023-02-09T06:16:33.240Z,100079.53
2023-02-09T06:19:35.934Z,100084.41
2023-02-09T06:22:39.996Z,100077.78
2023-02-09T06:25:42.855Z,100082.09
2023-02-09T06:28:46.054Z,100080.75
2023-02-09T06:31:51.426Z,100083.50
2023-02-09T06:34:54.111Z,100091.75
2023-02-09T06:37:59.166Z,100101.84
2023-02-09T06:41:02.268Z,100108.66
2023-02-09T06:44:05.526Z,100113.50
2023-02-09T06:47:08.159Z,100108.84
2023-02-09T06:50:11.720Z,100123.19
2023-02-09T06:53:17.157Z,100125.84
2023-02-09T06:56:20.160Z,100138.44
2023-02-09T06:59:22.817Z,100125.13
2023-02-09T07:02:25.493Z,100120.44
2023-02-09T07:05:28.404Z,100134.03
2023-02-09T07:08:32.611Z,100133.28
2023-02-09T07:11:35.431Z,100122.25
2023-02-09T07:14:37.993Z,100118.03
2023-02-09T07:17:40.832Z,100136.13
2023-02-09T07:20:43.642Z,100140.25
2023-02-09T07:23:48.439Z,100137.22
2023-02-09T07:26:51.116Z,100135.47
2023-02-09T07:29:53.756Z,100146.88
2023-02-09T07:32:56.556Z,100152.38
2023-02-09T07:35:59.299Z,100147.41
2023-02-09T07:39:03.380Z,100155.38
2023-02-09T07:42:06.128Z,100148.56
2023-02-09T07:45:10.170Z,100149.94
2023-02-09T07:48:13.364Z,100153.97
2023-02-09T07:51:16.748Z,100151.22
2023-02-09T07:54:21.383Z,100153.34
2023-02-09T07:57:24.145Z,100146.47
2023-02-09T08:00:26.834Z,100149.41
2023-02-09T08:03:30.074Z,100154.25
2023-02-09T08:06:41.860Z,100153.28
2023-02-09T08:09:47.119Z,100147.63
2023-02-09T08:13:02.532Z,100144.78
2023-02-09T08:16:07.369Z,100142.41
2023-02-09T08:19:13.301Z,100152.19
2023-02-09T08:22:16.083Z,100156.53
2023-02-09T08:25:21.762Z,100163.16
2023-02-09T08:28:38.290Z,100161.00
2023-02-09T08:31:45.711Z,100158.66
2023-02-09T08:34:48.360Z,100149.41
2023-02-09T08:37:51.032Z,100146.38
2023-02-09T08:40:55.024Z,100152.81
2023-02-09T08:43:57.614Z,100157.38
2023-02-09T08:47:00.378Z,100151.69
2023-02-09T08:50:03.039Z,100156.25
2023-02-09T08:53:06.048Z,100168.84
2023-02-09T08:56:10.089Z,100154.44
2023-02-09T08:59:12.993Z,100152.63
2023-02-09T09:02:15.739Z,100155.91
2023-02-09T09:05:18.760Z,100161.47
2023-02-09T09:08:21.349Z,100153.03
2023-02-09T09:11:25.634Z,100154.25
2023-02-09T09:14:28.211Z,100154.59
2023-02-09T09:17:31.108Z,100155.03
2023-02-09T09:20:33.769Z,100155.22
2023-02-09T09:23:36.443Z,100161.97
2023-02-09T09:26:40.390Z,100161.72
2023-02-09T09:29:42.918Z,100167.47
2023-02-09T09:32:45.702Z,100165.50
2023-02-09T09:35:48.471Z,100175.66
2023-02-09T09:38:51.165Z,100168.94
2023-02-09T09:41:59.374Z,100180.66
2023-02-09T09:45:02.773Z,100171.91
2023-02-09T09:48:07.319Z,100169.34
2023-02-09T09:51:13.992Z,100175.22
2023-02-09T09:54:20.381Z,100181.09
2023-02-09T09:57:26.608Z,100181.47
2023-02-09T10:00:33.655Z,100188.31
2023-02-09T10:03:36.567Z,100188.81
2023-02-09T10:06:41.884Z,100187.44
2023-02-09T10:09:48.081Z,100178.19
2023-02-09T10:12:53.019Z,100186.16
2023-02-09T10:15:57.218Z,100189.13
2023-02-09T10:19:01.161Z,100185.09
2023-02-09T10:22:04.045Z,100176.69
2023-02-09T10:25:38.272Z,100178.19
2023-02-09T10:28:43.976Z,100177.63
2023-02-09T10:31:50.533Z,100183.22
2023-02-09T10:34:56.775Z,100184.13
2023-02-09T10:38:00.792Z,100178.59
2023-02-09T10:41:03.437Z,100174.16
2023-02-09T10:44:13.925Z,100170.69
2023-02-09T10:47:28.088Z,100171.91
2023-02-09T10:50:30.639Z,100169.34
2023-02-09T10:53:35.077Z,100168.28
2023-02-09T10:56:47.653Z,100166.75
2023-02-09T10:59:56.483Z,100169.47
2023-02-09T11:03:02.598Z,100161.97
2023-02-09T11:06:14.943Z,100160.00
2023-02-09T11:09:19.260Z,100165.50
2023-02-09T11:12:23.038Z,100155.44
2023-02-09T11:15:28.979Z,100151.09
2023-02-09T11:18:34.578Z,100162.16
2023-02-09T11:21:45.800Z,100154.28
2023-02-09T11:24:55.876Z,100143.38
2023-02-09T11:28:19.974Z,100136.53
2023-02-09T11:31:47.169Z,100143.13
2023-02-09T11:35:09.927Z,100134.75
2023-02-09T11:38:16.881Z,100132.41
2023-02-09T11:41:52.759Z,100123.22
2023-02-09T11:44:59.177Z,100121.09
2023-02-09T11:48:07.205Z,100107.53
2023-02-09T11:51:12.450Z,100103.00
2023-02-09T11:54:17.717Z,100103.38
2023-02-09T11:57:25.135Z,100097.19
2023-02-09T12:00:31.594Z,100099.78
2023-02-09T12:03:35.683Z,100084.88
2023-02-09T12:06:40.051Z,100091.81
2023-02-09T12:09:49.497Z,100086.31
2023-02-09T12:12:56.077Z,100082.47
2023-02-09T12:16:01.055Z,100076.91
2023-02-09T12:19:06.604Z,100069.69
2023-02-09T12:22:50.322Z,100071.41
2023-02-09T12:25:59.612Z,100077.88
2023-02-09T12:29:22.778Z,100073.63
2023-02-09T12:32:43.242Z,100072.72
2023-02-09T12:36:00.498Z,100069.94
2023-02-09T12:39:24.161Z,100072.59
2023-02-09T12:42:28.935Z,100066.53
2023-02-09T12:45:34.969Z,100058.13
2023-02-09T12:48:48.212Z,100065.47
2023-02-09T12:52:14.129Z,100064.91
2023-02-09T12:55:19.140Z,100062.19
2023-02-09T12:58:39.052Z,100056.50
2023-02-09T13:02:05.159Z,100063.66
2023-02-09T13:05:10.188Z,100061.97
2023-02-09T13:08:39.294Z,100060.06
2023-02-09T13:11:49.274Z,100055.72
2023-02-09T13:14:52.292Z,100068.34
2023-02-09T13:18:06.244Z,100062.81
2023-02-09T13:21:16.552Z,100074.81
2023-02-09T13:24:23.352Z,100073.47
2023-02-09T13:27:29.083Z,100069.53
2023-02-09T13:30:33.366Z,100063.59
2023-02-09T13:33:42.099Z,100063.47
2023-02-09T13:36:47.422Z,100071.69
2023-02-09T13:39:58.071Z,100073.53
2023-02-09T13:43:05.373Z,100074.41
2023-02-09T13:46:08.078Z,100072.34
2023-02-09T13:49:12.297Z,100077.56
2023-02-09T13:52:16.451Z,100073.69
2023-02-09T13:55:21.580Z,100075.19
2023-02-09T13:58:26.015Z,100071.34
2023-02-09T14:01:31.573Z,100073.28
2023-02-09T14:04:35.124Z,100070.22
2023-02-09T14:07:38.973Z,100065.41
2023-02-09T14:10:44.875Z,100073.31
2023-02-09T14:13:50.357Z,100060.47
2023-02-09T14:17:23.779Z,100069.78
2023-02-09T14:20:27.256Z,100066.97
2023-02-09T14:23:33.036Z,100077.50
2023-02-09T14:26:42.661Z,100087.75
2023-02-09T14:29:47.254Z,100083.56
2023-02-09T14:32:53.473Z,100085.88
2023-02-09T14:35:59.242Z,100084.84
2023-02-09T14:39:10.575Z,100081.19
2023-02-09T14:42:18.980Z,100079.59
2023-02-09T14:45:30.891Z,100081.03
2023-02-09T14:48:33.522Z,100081.38
2023-02-09T14:51:36.052Z,100078.25
2023-02-09T14:54:48.532Z,100091.28
2023-02-09T14:57:52.713Z,100090.78
2023-02-09T15:00:56.762Z,100085.53
2023-02-09T15:03:59.393Z,100089.59
2023-02-09T15:07:03.673Z,100095.50
2023-02-09T15:10:08.438Z,100085.16
2023-02-09T15:13:13.603Z,100089.41
2023-02-09T15:16:16.965Z,100102.94
2023-02-09T15:19:22.243Z,100097.34
2023-02-09T15:22:25.480Z,100094.47
2023-02-09T15:25:28.602Z,100093.22
2023-02-09T15:28:34.397Z,100087.69
2023-02-09T15:31:37.371Z,100091.63
2023-02-09T15:34:40.074Z,100096.84
2023-02-09T15:37:44.315Z,100109.44
2023-02-09T15:41:06.490Z,100106.78
2023-02-09T15:44:34.909Z,100107.88
2023-02-09T15:47:49.739Z,100113.78
2023-02-09T15:50:52.518Z,100108.22
2023-02-09T15:53:56.218Z,100119.03
2023-02-09T15:56:59.361Z,100122.88
2023-02-09T16:00:03.803Z,100128.00
2023-02-09T16:03:13.498Z,100134.41
2023-02-09T16:06:18.450Z,100130.00
2023-02-09T16:09:23.361Z,100130.28
2023-02-09T16:12:26.296Z,100141.31
2023-02-09T16:15:30.259Z,100148.25
2023-02-09T16:18:33.160Z,100142.28
2023-02-09T16:21:35.812Z,100148.66
2023-02-09T16:24:40.731Z,100141.13
2023-02-09T16:27:43.405Z,100149.94
2023-02-09T16:30:53.091Z,100153.78
2023-02-09T16:33:55.857Z,100149.53
2023-02-09T16:36:58.543Z,100153.22
2023-02-09T16:40:02.351Z,100159.78
2023-02-09T16:43:05.984Z,100159.88
2023-02-09T16:46:11.994Z,100159.31
2023-02-09T16:49:29.136Z,100163.84
2023-02-09T16:52:31.953Z,100160.53
2023-02-09T16:55:36.514Z,100166.00
2023-02-09T16:58:39.954Z,100168.03
2023-02-09T17:01:43.977Z,100172.34
2023-02-09T17:04:47.251Z,100165.47
2023-02-09T17:07:54.814Z,100174.94
2023-02-09T17:10:58.049Z,100179.94
2023-02-09T17:14:00.856Z,100183.16
2023-02-09T17:17:05.041Z,100190.25
2023-02-09T17:20:08.016Z,100193.34
2023-02-09T17:23:15.862Z,100191.66
2023-02-09T17:26:18.997Z,100186.97
2023-02-09T17:29:22.125Z,100190.53
2023-02-09T17:32:26.314Z,100192.16
2023-02-09T17:35:58.030Z,100203.97
2023-02-09T17:38:52.612Z,100202.59
2023-02-09T17:41:55.384Z,100201.88
2023-02-09T17:44:58.276Z,100210.13
2023-02-09T17:48:03.275Z,100215.09
2023-02-09T17:51:07.146Z,100223.81
2023-02-09T17:54:12.727Z,100220.97
2023-02-09T17:57:16.299Z,100220.66
2023-02-09T18:00:19.733Z,100220.81
2023-02-09T18:03:25.959Z,100215.81
2023-02-09T18:06:34.537Z,100222.88
2023-02-09T18:09:37.184Z,100222.50
2023-02-09T18:12:40.064Z,100215.13
2023-02-09T18:15:43.223Z,100224.84
2023-02-09T18:18:47.814Z,100217.00
2023-02-09T18:21:52.600Z,100231.97
2023-02-09T18:25:00.085Z,100225.28
2023-02-09T18:28:03.741Z,100220.53
2023-02-09T18:31:07.264Z,100227.00
2023-02-09T18:34:11.925Z,100236.41
2023-02-09T18:37:15.862Z,100238.69
2023-02-09T18:40:18.910Z,100248.56
2023-02-09T18:43:21.734Z,100246.53
2023-02-09T18:46:26.998Z,100264.94
2023-02-09T18:49:31.112Z,100265.59
2023-02-09T18:52:34.653Z,100266.63
2023-02-09T18:55:37.791Z,100270.09
2023-02-09T18:58:40.688Z,100274.22
2023-02-09T19:01:43.503Z,100270.31
2023-02-09T19:04:48.177Z,100274.88
2023-02-09T19:07:51.029Z,100271.81
2023-02-09T19:10:53.864Z,100286.44
2023-02-09T19:14:14.198Z,100280.69
2023-02-09T19:17:18.217Z,100286.88
2023-02-09T19:20:24.367Z,100296.59
2023-02-09T19:23:27.006Z,100301.16
2023-02-09T19:26:29.841Z,100299.28
2023-02-09T19:29:32.429Z,100305.25
2023-02-09T19:32:35.503Z,100306.91
2023-02-09T19:35:39.529Z,100320.09
2023-02-09T19:38:42.250Z,100319.72
2023-02-09T19:41:46.989Z,100311.66
2023-02-09T19:44:50.335Z,100306.09
2023-02-09T19:47:53.118Z,100311.66
2023-02-09T19:50:57.495Z,100314.34
2023-02-09T19:54:00.123Z,100304.22
2023-02-09T19:57:04.218Z,100301.72
2023-02-09T20:00:07.428Z,100302.53
2023-02-09T20:03:10.504Z,100301.91
2023-02-09T20:06:15.027Z,100318.78
2023-02-09T20:09:17.691Z,100316.50
2023-02-09T20:12:22.154Z,100314.06
2023-02-09T20:15:25.672Z,100310.56
2023-02-09T20:18:28.641Z,100308.47
2023-02-09T20:21:32.593Z,100300.25
2023-02-09T20:24:35.039Z,100295.72
2023-02-09T20:27:37.846Z,100304.78
2023-02-09T20:30:42.552Z,100306.00
2023-02-09T20:33:45.151Z,100308.03
2023-02-09T20:36:50.794Z,100305.34
2023-02-09T20:39:53.504Z,100309.25
2023-02-09T20:43:13.957Z,100308.00
2023-02-09T20:46:37.944Z,100306.53
2023-02-09T20:49:41.220Z,100314.16
2023-02-09T20:52:46.093Z,100322.00
2023-02-09T20:55:49.253Z,100330.97
2023-02-09T20:58:51.962Z,100340.47
2023-02-09T21:01:54.953Z,100342.13
2023-02-09T21:04:58.100Z,100342.22
2023-02-09T21:08:04.508Z,100338.56
2023-02-09T21:11:07.154Z,100344.09
2023-02-09T21:14:21.635Z,100348.22
2023-02-09T21:17:30.342Z,100344.63
2023-02-09T21:20:33.864Z,100348.78
2023-02-09T21:23:38.024Z,100350.09
2023-02-09T21:26:42.709Z,100351.06
2023-02-09T21:29:45.353Z,100357.44
2023-02-09T21:32:48.101Z,100350.41
2023-02-09T21:35:51.056Z,100349.16
2023-02-09T21:38:55.027Z,100353.28
2023-02-09T21:42:15.272Z,100363.13
2023-02-09T21:45:18.434Z,100371.59
2023-02-09T21:48:21.445Z,100369.94
2023-02-09T21:51:24.243Z,100368.88
2023-02-09T21:54:33.170Z,100373.22
2023-02-09T21:57:36.341Z,100375.91
2023-02-09T22:00:38.944Z,100380.78
2023-02-09T22:03:42.530Z,100384.47
2023-02-09T22:06:47.100Z,100392.72
2023-02-09T22:09:51.251Z,100388.81
2023-02-09T22:12:53.936Z,100392.38
2023-02-09T22:15:56.952Z,100399.75
2023-02-09T22:19:00.271Z,100402.19
2023-02-09T22:22:02.853Z,100403.03
2023-02-09T22:25:07.830Z,100400.16
2023-02-09T22:28:10.618Z,100404.88
2023-02-09T22:31:15.826Z,100402.19
2023-02-09T22:34:18.467Z,100402.59
2023-02-09T22:37:21.032Z,100408.75
2023-02-09T22:40:25.066Z,100406.88
2023-02-09T22:43:27.974Z,100414.50
2023-02-09T22:46:33.058Z,100418.25
2023-02-09T22:49:35.860Z,100418.63
2023-02-09T22:52:38.580Z,100421.69
2023-02-09T22:55:42.722Z,100430.50
2023-02-09T22:58:45.501Z,100428.84
2023-02-09T23:01:49.133Z,100434.25
2023-02-09T23:04:51.959Z,100417.56
2023-02-09T23:07:54.770Z,100434.00
2023-02-09T23:11:03.482Z,100423.44
2023-02-09T23:14:09.911Z,100430.06
2023-02-09T23:17:13.156Z,100427.41
2023-02-09T23:20:16.301Z,100432.88
2023-02-09T23:23:19.098Z,100431.31
2023-02-09T23:26:23.367Z,100427.56
2023-02-09T23:29:26.155Z,100445.53
2023-02-09T23:32:28.854Z,100436.78
2023-02-09T23:35:31.678Z,100440.94
2023-02-09T23:38:34.371Z,100436.78
2023-02-09T23:41:39.875Z,100432.91
2023-02-09T23:44:42.830Z,100440.03
2023-02-09T23:47:45.561Z,100440.94
2023-02-09T23:50:48.336Z,100450.44
2023-02-09T23:53:51.509Z,100447.75
2023-02-09T23:56:55.645Z,100450.19
2023-02-09T23:59:58.342Z,100447.88
